Time;durP1;ratioP1;P1;durP2;ratioP2;P2;SDS_P1;SDS_P2;PMS_P1;PMS_P2;Temp;Humidity;BMP_temperature;BMP_pressure;BME280_temperature;BME280_humidity;BME280_pressure;Samples;Min_cycle;Max_cycle;Signal;HPM_P1;HPM_P2
2023/05/11 00:03:55;;;;;;;4.70;2.92;;;;;;;8.84;57.14;101796.22;10625370;27;20048;-75
2023/05/11 00:08:57;;;;;;;4.10;2.50;;;;;;;8.96;57.15;101800.59;10603294;27;20044;-76
2023/05/11 00:14:00;;;;;;;4.60;2.97;;;;;;;9.06;55.42;101803.56;10571077;28;20502;-75
2023/05/11 00:19:02;;;;;;;4.28;2.97;;;;;;;9.10;55.55;101794.84;10603582;27;20047;-76
2023/05/11 00:24:05;;;;;;;6.20;2.75;;;;;;;9.12;55.45;101799.00;10646473;27;20512;-76
2023/05/11 00:29:07;;;;;;;5.63;3.30;;;;;;;9.13;55.41;101803.41;10605352;27;20047;-76
2023/05/11 00:34:10;;;;;;;4.50;3.30;;;;;;;9.12;56.03;101809.97;10637319;27;20138;-77
2023/05/11 00:39:12;;;;;;;4.45;3.10;;;;;;;9.12;55.92;101809.13;10594829;27;20405;-77
2023/05/11 00:44:20;;;;;;;7.07;4.03;;;;;;;9.09;57.14;101824.16;10619199;27;20248;-76
2023/05/11 00:49:23;;;;;;;6.95;3.60;;;;;;;8.94;57.01;101813.69;10606416;28;20051;-76
2023/05/11 00:54:26;;;;;;;7.45;4.18;;;;;;;8.83;58.43;101821.94;10609488;27;20136;-78
2023/05/11 00:59:28;;;;;;;7.63;4.50;;;;;;;8.64;60.11;101826.72;10601694;27;20070;-77
2023/05/11 01:04:31;;;;;;;6.70;4.53;;;;;;;8.39;60.39;101827.81;10613471;27;20541;-77
2023/05/11 01:09:59;;;;;;;7.30;4.78;;;;;;;8.11;61.93;101833.09;10552608;28;20055;-77
2023/05/11 01:15:11;;;;;;;;;;;;;;;7.98;62.81;101830.56;10605869;28;20039;-77
2023/05/11 01:20:17;;;;;;;4.97;3.83;;;;;;;7.85;62.74;101826.16;10609276;27;19926;-77
2023/05/11 01:25:42;;;;;;;8.07;4.90;;;;;;;7.87;63.22;101834.94;10590810;27;20031;-77
2023/05/11 01:31:14;;;;;;;7.97;4.97;;;;;;;7.99;62.96;101833.09;10637814;27;20058;-77
2023/05/11 01:36:38;;;;;;;10.32;5.28;;;;;;;8.06;63.44;101831.06;10627132;27;20459;-76
2023/05/11 01:41:41;;;;;;;8.27;4.28;;;;;;;8.11;62.46;101836.66;10590195;27;20500;-77
2023/05/11 01:46:44;;;;;;;9.02;4.95;;;;;;;8.13;62.26;101836.41;10606808;27;20051;-75
2023/05/11 01:51:50;;;;;;;9.43;4.47;;;;;;;8.18;62.10;101841.19;10583990;28;20050;-75
2023/05/11 01:56:55;;;;;;;11.40;4.78;;;;;;;8.11;62.99;101842.13;10594282;27;20048;-78
2023/05/11 02:01:59;;;;;;;11.88;5.25;;;;;;;8.06;63.54;101838.44;10599844;27;20341;-77
2023/05/11 02:07:02;;;;;;;7.63;4.97;;;;;;;8.07;63.78;101840.09;10616991;27;20047;-77
2023/05/11 02:12:05;;;;;;;7.22;4.47;;;;;;;8.08;64.34;101839.88;10613808;27;20042;-75
2023/05/11 02:17:10;;;;;;;7.18;4.18;;;;;;;8.13;64.60;101845.44;10580394;27;20043;-76
2023/05/11 02:22:13;;;;;;;11.05;5.25;;;;;;;8.17;64.59;101845.84;10584922;27;20413;-76
2023/05/11 02:27:16;;;;;;;7.53;4.60;;;;;;;8.26;65.06;101838.94;10605926;27;20055;-76
2023/05/11 02:32:20;;;;;;;7.85;4.47;;;;;;;8.36;63.86;101833.75;10643307;27;20039;-76
2023/05/11 02:37:25;;;;;;;12.00;4.85;;;;;;;8.43;63.55;101839.94;10624507;27;20042;-77
2023/05/11 02:42:29;;;;;;;7.32;4.53;;;;;;;8.58;63.73;101836.72;10598669;28;20051;-75
2023/05/11 02:47:49;;;;;;;10.88;5.15;;;;;;;8.71;63.77;101835.66;10593354;27;20039;-76
2023/05/11 02:52:58;;;;;;;10.60;5.05;;;;;;;8.87;62.92;101836.81;10592898;27;20035;-76
2023/05/11 02:58:01;;;;;;;9.15;5.28;;;;;;;8.99;62.95;101838.44;10580534;28;20058;-77
2023/05/11 03:03:04;;;;;;;12.85;5.70;;;;;;;9.11;61.65;101837.59;10628902;27;20390;-76
2023/05/11 03:08:07;;;;;;;7.72;4.70;;;;;;;9.37;61.46;101856.19;10657034;27;20039;-76
2023/05/11 03:13:09;;;;;;;11.90;5.50;;;;;;;9.72;60.42;101853.34;10634260;27;20031;-76
2023/05/11 03:18:12;;;;;;;8.20;4.47;;;;;;;10.16;59.03;101859.88;10612949;27;20035;-77
2023/05/11 03:23:40;;;;;;;11.60;4.73;;;;;;;10.67;57.87;101848.91;10617426;27;20043;-77
2023/05/11 03:28:43;;;;;;;7.20;4.45;;;;;;;10.85;55.82;101849.44;10589209;27;20073;-76
2023/05/11 03:33:48;;;;;;;8.07;4.65;;;;;;;11.06;55.29;101860.69;10646612;27;20045;-77
2023/05/11 03:38:55;;;;;;;6.88;4.55;;;;;;;11.11;54.16;101860.78;10652998;27;20039;-76
2023/05/11 03:43:59;;;;;;;8.52;4.57;;;;;;;11.35;53.47;101858.59;10622125;27;20042;-77
2023/05/11 03:49:06;;;;;;;6.45;4.55;;;;;;;11.73;51.86;101861.22;10607118;27;20150;-77
2023/05/11 03:54:08;;;;;;;10.25;4.57;;;;;;;11.83;51.14;101856.97;10640534;27;20043;-76
2023/05/11 03:59:15;;;;;;;14.20;4.70;;;;;;;12.07;50.95;101861.88;10636404;27;20043;-76
2023/05/11 04:04:25;;;;;;;6.18;4.30;;;;;;;12.18;50.51;101864.72;10635278;27;20505;-76
2023/05/11 04:09:28;;;;;;;9.05;5.20;;;;;;;12.34;50.31;101856.34;10619156;27;20054;-75
2023/05/11 04:14:30;;;;;;;10.05;5.18;;;;;;;12.67;49.47;101857.94;10654525;27;20039;-76
2023/05/11 04:19:32;;;;;;;10.77;5.53;;;;;;;12.89;48.94;101855.03;10656292;27;20308;-76
2023/05/11 04:24:34;;;;;;;8.55;5.68;;;;;;;13.21;48.49;101854.13;10619273;27;20035;-76
2023/05/11 04:29:37;;;;;;;9.68;4.85;;;;;;;13.45;48.71;101849.81;10655368;27;20047;-75
2023/05/11 04:34:39;;;;;;;10.68;5.57;;;;;;;13.77;47.82;101863.41;10645301;27;20036;-76
2023/05/11 04:39:42;;;;;;;9.55;5.70;;;;;;;14.31;46.17;101845.50;10577581;28;20532;-76
2023/05/11 04:44:45;;;;;;;8.55;5.80;;;;;;;14.87;44.28;101846.28;10617485;27;20042;-77
2023/05/11 04:49:49;;;;;;;11.40;5.45;;;;;;;15.30;43.45;101858.59;10577814;28;20101;-76
2023/05/11 04:54:52;;;;;;;8.98;4.70;;;;;;;15.54;41.47;101860.69;10576284;27;20046;-77
2023/05/11 04:59:54;;;;;;;7.28;4.75;;;;;;;15.80;40.73;101853.09;10620314;27;20405;-77
2023/05/11 05:04:57;;;;;;;10.45;4.47;;;;;;;16.06;38.66;101857.34;10580914;28;20031;-77
2023/05/11 05:10:04;;;;;;;7.40;4.47;;;;;;;16.32;38.21;101852.44;10612201;28;20058;-77
2023/05/11 05:15:07;;;;;;;8.10;4.22;;;;;;;16.74;37.67;101843.44;10585543;28;20035;-77
2023/05/11 05:20:10;;;;;;;7.55;4.95;;;;;;;17.04;36.62;101839.53;10620535;28;20036;-77
2023/05/11 05:25:14;;;;;;;14.15;4.82;;;;;;;17.23;37.05;101842.34;10594406;28;20039;-78
2023/05/11 05:30:16;;;;;;;13.68;4.72;;;;;;;17.91;35.16;101838.38;10619741;28;20051;-76
2023/05/11 05:35:19;;;;;;;6.72;4.90;;;;;;;18.30;34.05;101841.59;10580355;28;20041;-76
2023/05/11 05:40:22;;;;;;;8.98;4.38;;;;;;;18.39;33.38;101848.09;10578944;28;20043;-76
2023/05/11 05:45:28;;;;;;;7.93;3.88;;;;;;;18.59;32.97;101843.34;10580224;28;20044;-76
2023/05/11 05:50:31;;;;;;;4.30;3.30;;;;;;;18.78;32.58;101843.28;10592535;28;20040;-77
2023/05/11 05:55:34;;;;;;;5.47;3.33;;;;;;;19.03;31.67;101850.31;10600606;28;20066;-77
2023/05/11 06:00:38;;;;;;;9.00;3.42;;;;;;;19.15;32.09;101853.41;10634782;28;20449;-77
2023/05/11 06:05:44;;;;;;;9.23;4.07;;;;;;;19.35;31.94;101852.16;10581981;27;20416;-78
2023/05/11 06:10:47;;;;;;;5.60;3.40;;;;;;;19.53;31.33;101851.19;10625685;27;20046;-77
2023/05/11 06:15:50;;;;;;;10.40;3.80;;;;;;;19.63;31.49;101853.78;10611165;27;20412;-77
2023/05/11 06:21:04;;;;;;;6.35;3.00;;;;;;;20.28;31.15;101846.94;10636227;27;20042;-78
2023/05/11 06:26:08;;;;;;;8.57;3.53;;;;;;;20.70;30.88;101854.78;10607452;28;20043;-78
2023/05/11 06:31:11;;;;;;;7.68;3.70;;;;;;;20.84;30.35;101848.31;10609900;28;20044;-80
2023/05/11 06:36:15;;;;;;;8.75;4.47;;;;;;;21.04;30.26;101851.34;10592163;28;20516;-77
2023/05/11 06:41:17;;;;;;;6.50;3.50;;;;;;;21.05;31.24;101860.53;10613973;28;20047;-81
2023/05/11 06:46:20;;;;;;;6.03;3.65;;;;;;;21.23;31.09;101856.66;10605450;28;20416;-81
2023/05/11 06:51:23;;;;;;;9.00;3.78;;;;;;;21.42;31.59;101863.97;10598098;27;20058;-82
2023/05/11 06:56:26;;;;;;;6.00;3.70;;;;;;;20.47;33.34;101864.31;10615864;28;20042;-80
2023/05/11 07:01:29;;;;;;;7.32;3.88;;;;;;;20.52;33.78;101875.38;10614266;28;20051;-81
2023/05/11 07:06:32;;;;;;;9.23;3.58;;;;;;;20.45;34.19;101884.16;10616574;28;20039;-78
2023/05/11 07:11:35;;;;;;;8.65;3.70;;;;;;;20.70;34.14;101882.69;10609476;27;20046;-80
2023/05/11 07:16:37;;;;;;;4.07;2.95;;;;;;;21.23;33.76;101887.38;10583081;28;20044;-82
2023/05/11 07:21:40;;;;;;;6.97;3.65;;;;;;;21.33;33.91;101881.50;10630115;27;20043;-76
2023/05/11 07:26:42;;;;;;;5.20;2.75;;;;;;;21.38;33.67;101879.72;10588175;28;20040;-76
2023/05/11 07:31:44;;;;;;;6.60;2.90;;;;;;;21.51;34.61;101878.75;10656529;27;20043;-76
2023/05/11 07:36:50;;;;;;;8.77;2.90;;;;;;;21.70;34.28;101875.69;10654081;27;20091;-76
2023/05/11 07:41:52;;;;;;;5.32;2.53;;;;;;;21.83;34.17;101877.50;10625596;27;20047;-76
2023/05/11 07:46:54;;;;;;;5.95;2.67;;;;;;;21.85;34.39;101876.00;10630554;27;20043;-76
2023/05/11 07:51:58;;;;;;;4.05;2.53;;;;;;;22.48;32.60;101876.53;10619052;27;20051;-76
2023/05/11 07:57:02;;;;;;;6.45;2.47;;;;;;;22.27;31.78;101870.81;10655006;27;20046;-75
2023/05/11 08:02:06;;;;;;;3.43;2.43;;;;;;;22.34;30.80;101878.69;10649010;27;20043;-76
2023/05/11 08:07:08;;;;;;;4.72;2.60;;;;;;;22.66;30.34;101874.50;10610323;27;20039;-77
2023/05/11 08:12:11;;;;;;;3.35;2.67;;;;;;;22.76;30.67;101868.56;10620762;27;20421;-76
2023/05/11 08:17:13;;;;;;;7.57;2.65;;;;;;;23.13;30.07;101867.78;10638529;27;20409;-75
2023/05/11 08:22:15;;;;;;;8.05;3.42;;;;;;;22.89;30.23;101877.91;10649033;27;20397;-75
2023/05/11 08:27:17;;;;;;;4.72;2.70;;;;;;;22.58;30.44;101872.56;10619293;27;20058;-75
2023/05/11 08:32:20;;;;;;;3.45;2.40;;;;;;;22.86;29.38;101868.22;10636360;27;20512;-74
2023/05/11 08:37:22;;;;;;;4.85;2.70;;;;;;;22.88;28.80;101868.69;10640976;27;20031;-75
2023/05/11 08:42:26;;;;;;;5.07;2.40;;;;;;;23.04;29.17;101861.38;10659689;27;20045;-75
2023/05/11 08:47:28;;;;;;;5.40;2.55;;;;;;;22.93;28.62;101868.53;10620507;27;20043;-75
2023/05/11 08:52:30;;;;;;;6.75;2.75;;;;;;;23.22;29.35;101850.09;10612851;27;20042;-73
2023/05/11 08:57:33;;;;;;;2.65;2.20;;;;;;;23.17;28.77;101857.53;10634780;27;20049;-74
2023/05/11 09:02:35;;;;;;;4.13;2.80;;;;;;;23.24;28.13;101853.38;10624098;27;20038;-73
2023/05/11 09:07:40;;;;;;;4.68;3.20;;;;;;;23.24;28.37;101856.19;10627544;27;20039;-73
2023/05/11 09:12:43;;;;;;;4.57;2.97;;;;;;;23.16;29.03;101850.31;10652451;27;20047;-72
2023/05/11 09:17:45;;;;;;;4.65;2.53;;;;;;;22.63;28.84;101841.59;10614647;27;20061;-74
2023/05/11 09:22:47;;;;;;;3.42;2.58;;;;;;;22.24;29.04;101841.53;10620352;28;20445;-72
2023/05/11 09:27:50;;;;;;;5.38;3.00;;;;;;;21.33;30.25;101839.63;10620362;27;20039;-78
2023/05/11 09:32:54;;;;;;;4.97;2.53;;;;;;;20.70;30.90;101837.25;10592156;27;20048;-76
2023/05/11 09:38:10;;;;;;;3.92;2.63;;;;;;;20.09;31.06;101839.59;10628995;27;20043;-76
2023/05/11 09:43:16;;;;;;;3.45;2.65;;;;;;;19.86;31.47;101835.16;10623930;27;20035;-77
2023/05/11 09:48:21;;;;;;;7.15;2.55;;;;;;;19.73;32.47;101831.28;10630858;27;20062;-79
2023/05/11 09:53:34;;;;;;;4.18;2.50;;;;;;;19.40;32.71;101826.97;10622137;27;20040;-80
2023/05/11 09:58:58;;;;;;;4.20;2.60;;;;;;;19.52;32.97;101827.28;10644140;27;20043;-78
2023/05/11 10:04:02;;;;;;;7.18;2.80;;;;;;;19.40;33.50;101827.81;10630525;27;20039;-78
2023/05/11 10:09:12;;;;;;;4.00;2.60;;;;;;;19.38;33.94;101826.47;10631640;27;20027;-78
2023/05/11 10:14:15;;;;;;;5.13;2.80;;;;;;;19.42;34.05;101831.09;10644412;27;20050;-81
2023/05/11 10:19:20;;;;;;;4.05;2.78;;;;;;;19.30;33.81;101830.81;10627509;27;20046;-78
2023/05/11 10:24:22;;;;;;;2.95;2.58;;;;;;;19.16;34.09;101825.28;10658132;27;20555;-75
2023/05/11 10:29:24;;;;;;;3.97;2.55;;;;;;;19.00;33.89;101823.09;10655042;27;20413;-78
2023/05/11 10:34:28;;;;;;;5.10;2.33;;;;;;;18.95;33.55;101826.81;10622201;27;20046;-79
2023/05/11 10:39:30;;;;;;;2.75;2.45;;;;;;;19.09;32.79;101822.09;10639502;27;20047;-82
2023/05/11 10:45:05;;;;;;;5.43;2.75;;;;;;;19.10;32.79;101820.94;10608941;27;20040;-82
2023/05/11 10:50:17;;;;;;;4.05;3.05;;;;;;;19.01;32.57;101819.19;10609940;27;20432;-82
2023/05/11 10:55:43;;;;;;;5.10;2.28;;;;;;;19.00;32.47;101817.53;10652863;27;20042;-84
2023/05/11 11:01:01;;;;;;;2.80;2.33;;;;;;;18.95;31.69;101815.69;10611068;27;20074;-80
2023/05/11 11:06:03;;;;;;;3.30;2.42;;;;;;;18.87;31.87;101811.66;10616861;27;20035;-82
2023/05/11 11:11:28;;;;;;;2.75;2.30;;;;;;;18.85;31.85;101808.38;10612125;27;20440;-84
2023/05/11 11:16:32;;;;;;;3.90;2.53;;;;;;;18.73;32.01;101810.81;10652028;27;20047;-84
2023/05/11 11:21:39;;;;;;;4.53;2.78;;;;;;;18.68;31.94;101810.94;10583955;27;20055;-78
2023/05/11 11:26:49;;;;;;;3.65;2.22;;;;;;;18.60;32.66;101803.28;10631074;27;20031;-78
2023/05/11 11:32:23;;;;;;;4.40;2.70;;;;;;;18.50;32.83;101803.47;10615283;27;20042;-79
2023/05/11 11:37:26;;;;;;;3.13;2.45;;;;;;;18.59;32.41;101796.06;10632461;27;20035;-78
2023/05/11 11:42:34;;;;;;;4.35;2.88;;;;;;;18.56;32.50;101800.28;10635064;27;20039;-78
2023/05/11 11:47:36;;;;;;;4.13;2.40;;;;;;;18.64;32.27;101796.81;10614285;27;20045;-78
2023/05/11 11:52:38;;;;;;;3.53;2.42;;;;;;;18.76;32.16;101795.50;10649430;27;20618;-77
2023/05/11 11:57:43;;;;;;;5.65;2.13;;;;;;;18.89;31.93;101803.81;10634186;27;20039;-77
2023/05/11 12:02:45;;;;;;;2.55;2.17;;;;;;;18.77;31.67;101797.16;10636790;27;20034;-76
2023/05/11 12:07:49;;;;;;;6.38;2.47;;;;;;;18.83;31.82;101795.91;10597724;27;20036;-78
2023/05/11 12:12:53;;;;;;;4.45;2.28;;;;;;;18.85;31.80;101797.25;10632737;27;20035;-76
2023/05/11 12:17:56;;;;;;;3.40;2.30;;;;;;;18.80;31.95;101797.34;10645174;27;20551;-76
2023/05/11 12:22:58;;;;;;;5.53;2.40;;;;;;;19.02;31.48;101798.59;10626483;27;20039;-78
2023/05/11 12:28:01;;;;;;;6.45;2.30;;;;;;;19.11;32.30;101791.16;10616964;27;20054;-78
2023/05/11 12:33:03;;;;;;;3.22;2.10;;;;;;;18.90;31.08;101802.69;10653561;27;20520;-78
2023/05/11 12:38:09;;;;;;;2.92;2.30;;;;;;;18.50;32.35;101797.91;10617048;27;20055;-78
2023/05/11 12:43:16;;;;;;;6.77;2.37;;;;;;;18.46;31.21;101797.69;10634218;27;20043;-78
2023/05/11 12:48:19;;;;;;;5.88;2.45;;;;;;;18.26;31.31;101801.66;10595667;27;20035;-76
2023/05/11 12:53:21;;;;;;;8.45;2.45;;;;;;;18.05;31.42;101803.97;10618701;27;20035;-76
2023/05/11 12:58:23;;;;;;;3.88;2.10;;;;;;;18.00;31.25;101794.88;10648371;27;20068;-76
2023/05/11 13:03:31;;;;;;;3.70;2.53;;;;;;;17.98;31.58;101792.41;10611564;27;20397;-77
2023/05/11 13:08:37;;;;;;;4.60;2.58;;;;;;;17.88;31.41;101794.56;10612742;27;20047;-77
2023/05/11 13:13:39;;;;;;;3.33;2.00;;;;;;;17.90;30.95;101790.34;10611107;27;20040;-79
2023/05/11 13:19:02;;;;;;;6.18;2.42;;;;;;;17.88;30.82;101784.28;10620041;27;20408;-77
2023/05/11 13:24:04;;;;;;;6.50;2.63;;;;;;;17.89;30.98;101785.09;10610843;27;20043;-78
2023/05/11 13:29:08;;;;;;;3.40;2.50;;;;;;;17.99;30.82;101784.91;10604609;27;20047;-77
2023/05/11 13:34:10;;;;;;;3.90;2.33;;;;;;;17.97;30.73;101778.84;10579441;28;20039;-77
2023/05/11 13:39:13;;;;;;;3.35;2.00;;;;;;;18.08;30.92;101774.75;10604769;27;20047;-78
2023/05/11 13:44:15;;;;;;;4.05;1.92;;;;;;;18.14;31.38;101776.31;10594191;27;20043;-78
2023/05/11 13:49:17;;;;;;;3.92;2.38;;;;;;;18.01;30.91;101772.34;10606196;27;20030;-78
2023/05/11 13:54:20;;;;;;;4.47;2.25;;;;;;;17.65;31.47;101763.75;10631989;27;20035;-78
2023/05/11 13:59:22;;;;;;;5.40;2.50;;;;;;;17.67;31.67;101769.81;10627529;28;20047;-77
2023/05/11 14:04:25;;;;;;;3.35;2.10;;;;;;;17.48;31.66;101763.47;10614345;27;20035;-77
2023/05/11 14:09:27;;;;;;;3.50;2.40;;;;;;;17.34;32.41;101766.16;10612872;27;20047;-77
2023/05/11 14:14:29;;;;;;;4.47;2.53;;;;;;;17.25;32.23;101761.59;10625636;27;20395;-77
2023/05/11 14:19:31;;;;;;;4.18;1.90;;;;;;;17.26;32.38;101754.91;10650837;28;20042;-77
2023/05/11 14:24:33;;;;;;;3.22;2.00;;;;;;;17.16;32.31;101759.47;10632767;27;20042;-77
2023/05/11 14:29:36;;;;;;;6.35;2.00;;;;;;;17.10;32.79;101755.13;10594237;28;20047;-77
2023/05/11 14:34:38;;;;;;;4.07;2.40;;;;;;;17.09;32.91;101750.69;10611755;27;20524;-77
2023/05/11 14:39:40;;;;;;;5.10;2.47;;;;;;;17.09;33.14;101749.88;10657882;27;20038;-78
2023/05/11 14:44:42;;;;;;;5.38;2.20;;;;;;;17.03;32.83;101753.84;10611840;27;20039;-77
2023/05/11 14:49:44;;;;;;;4.07;2.42;;;;;;;16.99;32.94;101747.22;10640455;27;20043;-79
2023/05/11 14:54:47;;;;;;;4.60;2.17;;;;;;;16.94;32.85;101750.91;10619981;27;20046;-76
2023/05/11 14:59:49;;;;;;;4.40;2.25;;;;;;;16.88;32.96;101741.00;10659943;27;20508;-75
2023/05/11 15:04:51;;;;;;;4.30;2.28;;;;;;;16.87;32.75;101744.91;10647449;27;20417;-76
2023/05/11 15:09:53;;;;;;;3.22;2.13;;;;;;;16.75;33.44;101744.50;10616378;27;20047;-75
2023/05/11 15:14:56;;;;;;;3.88;2.00;;;;;;;16.71;33.43;101740.66;10642601;27;20050;-75
2023/05/11 15:19:58;;;;;;;4.32;2.38;;;;;;;16.64;33.78;101738.19;10618866;27;20041;-75
2023/05/11 15:25:00;;;;;;;2.67;2.20;;;;;;;16.58;33.84;101731.91;10614592;27;20047;-76
2023/05/11 15:30:02;;;;;;;5.72;2.28;;;;;;;16.52;34.50;101733.09;10628352;27;20074;-77
2023/05/11 15:35:07;;;;;;;2.75;2.20;;;;;;;16.44;34.82;101732.91;10647428;27;20039;-76
2023/05/11 15:40:11;;;;;;;3.22;2.75;;;;;;;16.37;35.46;101730.47;10647295;27;20630;-78
2023/05/11 15:45:13;;;;;;;4.70;2.35;;;;;;;16.37;34.91;101733.25;10608846;27;20027;-77
2023/05/11 15:50:16;;;;;;;4.95;3.08;;;;;;;16.32;35.42;101727.78;10642939;27;20039;-74
2023/05/11 15:55:18;;;;;;;7.95;2.45;;;;;;;16.26;35.89;101731.69;10642745;27;20054;-74
2023/05/11 16:00:20;;;;;;;3.25;2.22;;;;;;;16.19;36.33;101728.47;10648941;27;20031;-74
2023/05/11 16:05:22;;;;;;;4.53;2.22;;;;;;;16.04;36.06;101731.38;10605209;27;20367;-74
2023/05/11 16:10:25;;;;;;;4.47;2.60;;;;;;;16.00;36.46;101735.84;10593654;28;20050;-74
2023/05/11 16:15:28;;;;;;;5.18;2.40;;;;;;;15.89;36.49;101735.94;10628286;27;20027;-74
2023/05/11 16:20:30;;;;;;;4.55;2.65;;;;;;;15.76;37.37;101735.75;10667050;27;20047;-72
2023/05/11 16:25:32;;;;;;;7.68;2.67;;;;;;;15.64;37.57;101731.44;10608264;28;20047;-74
2023/05/11 16:30:35;;;;;;;4.97;2.40;;;;;;;15.54;37.54;101739.78;10630033;27;20047;-73
2023/05/11 16:35:37;;;;;;;5.70;2.70;;;;;;;15.42;38.21;101730.16;10639290;27;20043;-75
2023/05/11 16:40:40;;;;;;;5.65;3.47;;;;;;;15.32;38.56;101737.44;10631479;27;20059;-72
2023/05/11 16:45:43;;;;;;;3.55;2.30;;;;;;;15.19;38.40;101735.31;10590276;27;20042;-73
2023/05/11 16:50:45;;;;;;;3.63;2.50;;;;;;;15.08;39.22;101742.81;10629471;27;20035;-74
2023/05/11 16:55:49;;;;;;;3.65;2.65;;;;;;;14.96;39.10;101738.75;10587992;27;20509;-77
2023/05/11 17:00:52;;;;;;;3.80;2.30;;;;;;;14.86;39.10;101733.25;10600553;27;20043;-80
2023/05/11 17:05:55;;;;;;;5.22;1.90;;;;;;;14.79;39.04;101739.09;10584106;27;20046;-74
2023/05/11 17:10:58;;;;;;;4.30;2.42;;;;;;;14.67;39.53;101742.19;10627075;27;20050;-75
2023/05/11 17:16:01;;;;;;;7.68;2.40;;;;;;;14.62;40.29;101741.38;10619096;28;20043;-76
2023/05/11 17:21:03;;;;;;;4.43;2.47;;;;;;;14.55;40.22;101744.41;10622998;27;20043;-77
2023/05/11 17:26:11;;;;;;;9.40;2.83;;;;;;;14.59;41.36;101739.19;10624312;27;20036;-76
2023/05/11 17:31:18;;;;;;;2.85;2.17;;;;;;;14.71;40.89;101731.38;10584050;28;20032;-76
2023/05/11 17:36:21;;;;;;;8.02;2.63;;;;;;;14.59;40.95;101736.41;10553103;28;20028;-76
2023/05/11 17:41:29;;;;;;;3.50;2.50;;;;;;;14.52;41.07;101738.63;10577664;28;20039;-76
2023/05/11 17:46:33;;;;;;;9.30;3.03;;;;;;;14.53;41.13;101734.75;10544356;28;20045;-77
2023/05/11 17:51:35;;;;;;;12.40;2.50;;;;;;;14.43;41.66;101741.13;10558269;28;20043;-71
2023/05/11 17:56:38;;;;;;;4.65;2.70;;;;;;;14.41;41.97;101751.63;10595219;28;20516;-71
2023/05/11 18:01:41;;;;;;;5.43;2.80;;;;;;;14.34;41.72;101749.13;10603489;28;20055;-71
2023/05/11 18:06:43;;;;;;;7.80;2.85;;;;;;;14.22;42.34;101750.53;10590359;28;20039;-71
2023/05/11 18:11:45;;;;;;;3.70;2.33;;;;;;;14.15;42.29;101756.34;10609739;28;20040;-70
2023/05/11 18:16:50;;;;;;;5.20;2.40;;;;;;;14.04;41.69;101758.28;10593383;27;20524;-70
2023/05/11 18:21:52;;;;;;;3.58;2.60;;;;;;;13.98;41.37;101759.41;10576286;28;20039;-70
2023/05/11 18:26:54;;;;;;;3.95;3.10;;;;;;;13.88;41.65;101757.50;10609222;27;20417;-72
2023/05/11 18:31:57;;;;;;;3.97;3.00;;;;;;;13.82;42.13;101760.50;10651786;27;20039;-70
2023/05/11 18:37:00;;;;;;;3.38;2.55;;;;;;;13.73;42.65;101762.16;10631511;27;20043;-68
2023/05/11 18:42:03;;;;;;;7.35;2.60;;;;;;;13.54;42.58;101757.19;10626402;27;20409;-70
2023/05/11 18:47:05;;;;;;;4.18;2.30;;;;;;;13.39;43.42;101754.41;10655189;27;20401;-71
2023/05/11 18:52:08;;;;;;;5.03;2.25;;;;;;;13.27;43.76;101764.84;10639326;27;20035;-69
2023/05/11 18:57:11;;;;;;;4.70;2.08;;;;;;;13.18;43.68;101761.75;10658902;27;20039;-70
2023/05/11 19:02:14;;;;;;;5.35;2.10;;;;;;;13.09;44.34;101762.56;10638803;27;20043;-69
2023/05/11 19:07:16;;;;;;;3.47;2.10;;;;;;;12.97;43.70;101760.84;10654652;27;20039;-68
2023/05/11 19:12:18;;;;;;;6.70;2.65;;;;;;;12.90;44.92;101763.03;10639017;27;20390;-69
2023/05/11 19:17:21;;;;;;;3.67;2.40;;;;;;;12.75;45.00;101762.97;10652800;27;20042;-71
2023/05/11 19:22:24;;;;;;;2.20;2.00;;;;;;;12.60;44.95;101765.63;10636806;27;20493;-71
2023/05/11 19:27:26;;;;;;;6.10;2.60;;;;;;;12.64;45.34;101769.50;10614261;27;20050;-71
2023/05/11 19:32:29;;;;;;;6.65;2.50;;;;;;;12.73;44.80;101773.41;10636396;27;20050;-71
2023/05/11 19:37:32;;;;;;;4.13;2.50;;;;;;;12.70;45.25;101771.22;10657460;27;20043;-69
2023/05/11 19:42:35;;;;;;;2.88;2.47;;;;;;;12.68;45.11;101771.47;10635344;27;20043;-69
2023/05/11 19:47:38;;;;;;;5.97;3.00;;;;;;;12.61;45.06;101775.56;10655777;27;20538;-69
2023/05/11 19:52:40;;;;;;;4.38;2.95;;;;;;;12.56;45.17;101770.84;10636380;27;20418;-69
2023/05/11 19:57:43;;;;;;;8.90;3.70;;;;;;;12.54;45.74;101784.06;10635836;27;20475;-70
2023/05/11 20:02:45;;;;;;;6.90;3.38;;;;;;;12.44;45.85;101778.47;10634888;27;20051;-70
2023/05/11 20:07:47;;;;;;;3.63;3.00;;;;;;;12.35;45.75;101780.09;10617737;27;20042;-69
2023/05/11 20:12:50;;;;;;;4.20;3.03;;;;;;;12.27;45.84;101775.88;10654238;27;20039;-70
2023/05/11 20:17:52;;;;;;;6.03;3.05;;;;;;;12.20;46.28;101789.06;10633488;27;20050;-70
2023/05/11 20:22:55;;;;;;;5.03;2.85;;;;;;;12.22;46.45;101800.63;10633903;27;20502;-70
2023/05/11 20:28:00;;;;;;;5.90;2.97;;;;;;;12.16;47.07;101795.38;10626644;27;20785;-68
2023/05/11 20:33:02;;;;;;;4.75;3.05;;;;;;;12.15;47.33;101800.03;10648734;27;20531;-69
2023/05/11 20:38:04;;;;;;;3.83;3.00;;;;;;;12.10;47.63;101808.22;10608787;27;20043;-71
2023/05/11 20:43:07;;;;;;;5.30;2.78;;;;;;;11.96;47.70;101796.00;10621082;27;20036;-70
2023/05/11 20:48:09;;;;;;;5.65;2.72;;;;;;;11.78;49.18;101808.19;10639373;27;20038;-70
2023/05/11 20:53:11;;;;;;;3.30;2.45;;;;;;;11.60;49.97;101808.56;10604578;27;20062;-71
2023/05/11 20:58:14;;;;;;;4.38;3.08;;;;;;;11.49;50.95;101818.63;10642814;27;20539;-71
2023/05/11 21:03:18;;;;;;;4.75;2.33;;;;;;;11.41;51.32;101808.09;10633678;27;20092;-69
2023/05/11 21:08:21;;;;;;;3.42;2.28;;;;;;;11.35;51.37;101820.13;10640460;27;20027;-70
2023/05/11 21:13:23;;;;;;;4.18;2.72;;;;;;;11.32;52.45;101820.66;10631989;27;20050;-70
2023/05/11 21:18:30;;;;;;;3.58;2.70;;;;;;;11.23;52.76;101825.75;10634081;27;20035;-70
2023/05/11 21:23:33;;;;;;;5.32;2.80;;;;;;;11.12;53.60;101818.50;10642049;28;20038;-70
2023/05/11 21:28:38;;;;;;;5.60;3.15;;;;;;;11.34;53.87;101826.72;10647819;27;20039;-70
2023/05/11 21:33:40;;;;;;;4.70;3.08;;;;;;;11.40;54.00;101829.25;10650897;27;20295;-70
2023/05/11 21:38:42;;;;;;;4.78;3.13;;;;;;;11.08;54.28;101829.13;10622752;27;20031;-70
2023/05/11 21:43:44;;;;;;;3.92;2.92;;;;;;;10.93;55.31;101836.34;10631672;27;20408;-70
2023/05/11 21:48:47;;;;;;;3.88;2.78;;;;;;;10.85;55.59;101840.38;10626593;27;20039;-69
2023/05/11 21:53:49;;;;;;;4.00;2.72;;;;;;;10.77;55.80;101844.41;10648906;27;20058;-69
2023/05/11 21:58:51;;;;;;;5.03;2.72;;;;;;;10.66;56.37;101847.22;10649176;27;20444;-70
2023/05/11 22:03:53;;;;;;;3.20;2.50;;;;;;;10.62;56.44;101855.16;10650047;27;20039;-70
2023/05/11 22:08:55;;;;;;;5.35;2.90;;;;;;;10.57;56.35;101849.56;10650045;27;20053;-71
2023/05/11 22:13:58;;;;;;;6.10;2.25;;;;;;;10.54;56.23;101856.38;10646213;27;20055;-71
2023/05/11 22:19:00;;;;;;;3.00;2.42;;;;;;;10.49;55.92;101852.75;10642058;27;20043;-69
2023/05/11 22:24:03;;;;;;;3.08;2.42;;;;;;;10.53;56.27;101862.13;10652374;27;20050;-69
2023/05/11 22:29:05;;;;;;;3.80;2.35;;;;;;;10.49;55.56;101852.75;10649108;27;20055;-69
2023/05/11 22:34:07;;;;;;;2.95;2.22;;;;;;;10.47;55.41;101855.75;10643615;27;20409;-71
2023/05/11 22:39:10;;;;;;;4.07;2.58;;;;;;;10.53;55.97;101860.22;10645075;27;20043;-69
2023/05/11 22:44:12;;;;;;;2.80;2.50;;;;;;;10.49;55.02;101850.00;10653989;27;20047;-69
2023/05/11 22:49:15;;;;;;;7.10;2.45;;;;;;;10.43;54.65;101848.28;10634908;27;20421;-68
2023/05/11 22:54:17;;;;;;;3.45;2.35;;;;;;;10.42;54.58;101855.66;10633501;27;20043;-68
2023/05/11 22:59:19;;;;;;;3.95;2.22;;;;;;;10.39;54.15;101847.91;10599066;27;20055;-68
2023/05/11 23:04:22;;;;;;;3.28;2.17;;;;;;;10.41;54.06;101845.78;10615811;27;20044;-68
2023/05/11 23:09:24;;;;;;;4.63;2.20;;;;;;;10.39;54.45;101847.91;10618120;27;20058;-68
2023/05/11 23:14:27;;;;;;;3.22;2.58;;;;;;;10.41;54.17;101845.78;10635328;27;20043;-68
2023/05/11 23:19:29;;;;;;;5.53;2.45;;;;;;;10.44;54.41;101834.28;10610963;27;20039;-72